Terminal Aerodrome Forecast
Issued by NWS

Home | Current Version | Previous Version | Text Only | Print | Product List | Glossary On
Versions: 1 2 3 4 5 6 7 8 9 10 11 12 13 14 15 16 17 18
000
FTUS43 KDVN 162300
TAFBRL
TAF
KBRL 162320Z 1700/1724 17014G24KT P6SM BKN150
     FM170500 17012KT P6SM BKN100
     FM171500 27008KT P6SM SCT040 BKN080=

USA.gov is the U.S. government's official web portal to all federal, state and local government web resources and services.